createdAt,value
2018-07-25T00:00:39.515Z,14.80
2018-07-25T00:03:07.981Z,15.37
2018-07-25T00:05:36.553Z,15.20
2018-07-25T00:08:05.102Z,14.83
2018-07-25T00:11:06.398Z,15.83
2018-07-25T00:13:34.903Z,14.87
2018-07-25T00:16:03.415Z,14.17
2018-07-25T00:18:31.895Z,16.40
2018-07-25T00:21:00.363Z,15.27
2018-07-25T00:23:28.954Z,16.30
2018-07-25T00:25:57.425Z,15.30
2018-07-25T00:28:25.904Z,15.67
2018-07-25T00:30:54.414Z,15.70
2018-07-25T00:33:22.867Z,16.07
2018-07-25T00:35:51.361Z,19.20
2018-07-25T00:38:19.831Z,14.73
2018-07-25T00:40:48.332Z,15.27
2018-07-25T00:43:16.804Z,14.83
2018-07-25T00:45:45.547Z,15.57
2018-07-25T00:48:14.035Z,15.80
2018-07-25T00:50:42.548Z,15.90
2018-07-25T00:53:11.045Z,16.47
2018-07-25T00:55:39.581Z,16.20
2018-07-25T00:58:08.368Z,15.07
2018-07-25T01:00:36.854Z,15.80
2018-07-25T01:03:05.326Z,14.93
2018-07-25T01:05:33.802Z,16.07
2018-07-25T01:08:02.309Z,15.50
2018-07-25T01:10:30.808Z,15.37
2018-07-25T01:12:59.409Z,16.10
2018-07-25T01:15:27.881Z,14.83
2018-07-25T01:17:56.360Z,15.07
2018-07-25T01:20:24.867Z,16.63
2018-07-25T01:22:53.356Z,15.43
2018-07-25T01:25:21.844Z,15.53
2018-07-25T01:27:50.332Z,15.60
2018-07-25T01:30:18.811Z,16.30
2018-07-25T01:32:47.288Z,16.27
2018-07-25T01:35:15.778Z,16.77
2018-07-25T01:37:44.273Z,16.60
2018-07-25T01:40:12.874Z,17.90
2018-07-25T01:42:41.467Z,16.00
2018-07-25T01:45:10.006Z,16.50
2018-07-25T01:47:38.546Z,16.60
2018-07-25T01:50:07.744Z,17.47
2018-07-25T01:52:36.221Z,17.47
2018-07-25T01:55:06.018Z,16.50
2018-07-25T01:57:34.514Z,16.67
2018-07-25T02:00:03.036Z,19.10
2018-07-25T02:02:31.534Z,16.43
2018-07-25T02:04:59.992Z,16.73
2018-07-25T02:07:28.452Z,14.87
2018-07-25T02:09:56.954Z,17.03
2018-07-25T02:12:25.444Z,16.13
2018-07-25T02:14:53.973Z,17.63
2018-07-25T02:17:22.462Z,17.67
2018-07-25T02:19:50.945Z,17.03
2018-07-25T02:22:19.643Z,18.70
2018-07-25T02:24:48.146Z,18.10
2018-07-25T02:27:16.642Z,16.23
2018-07-25T02:29:45.164Z,17.10
2018-07-25T02:32:13.647Z,16.93
2018-07-25T02:34:42.147Z,17.50
2018-07-25T02:37:10.598Z,16.97
2018-07-25T02:39:39.095Z,16.97
2018-07-25T02:42:07.695Z,17.70
2018-07-25T02:44:36.193Z,17.17
2018-07-25T02:47:04.698Z,18.33
2018-07-25T02:49:33.343Z,17.60
2018-07-25T02:52:01.829Z,16.63
2018-07-25T02:54:30.303Z,17.63
2018-07-25T02:56:58.810Z,15.10
2018-07-25T02:59:27.270Z,18.30
2018-07-25T03:01:55.732Z,18.27
2018-07-25T03:04:24.221Z,19.43
2018-07-25T03:06:52.718Z,17.23
2018-07-25T03:09:21.216Z,18.50
2018-07-25T03:11:49.697Z,16.93
2018-07-25T03:14:18.212Z,17.40
2018-07-25T03:16:46.778Z,18.20
2018-07-25T03:19:15.221Z,19.20
2018-07-25T03:21:43.719Z,18.07
2018-07-25T03:24:12.250Z,18.07
2018-07-25T03:26:40.720Z,18.70
2018-07-25T03:29:09.259Z,18.77
2018-07-25T03:31:37.777Z,18.53
2018-07-25T03:34:06.287Z,18.33
2018-07-25T03:36:34.804Z,19.70
2018-07-25T03:39:03.405Z,18.10
2018-07-25T03:41:31.916Z,17.47
2018-07-25T03:44:00.393Z,19.40
2018-07-25T03:46:28.893Z,19.73
2018-07-25T03:48:57.395Z,17.90
2018-07-25T03:51:25.890Z,17.23
2018-07-25T03:53:54.374Z,19.03
2018-07-25T03:56:22.866Z,18.70
2018-07-25T03:58:51.358Z,17.33
2018-07-25T04:01:19.926Z,18.40
2018-07-25T04:03:48.420Z,17.93
2018-07-25T04:06:16.907Z,17.17
2018-07-25T04:08:45.388Z,18.00
2018-07-25T04:11:14.018Z,18.60
2018-07-25T04:13:42.522Z,17.30
2018-07-25T04:16:11.086Z,17.70
2018-07-25T04:18:39.646Z,20.40
2018-07-25T04:21:08.157Z,18.13
2018-07-25T04:23:36.692Z,18.00
2018-07-25T04:26:05.341Z,19.50
2018-07-25T04:28:33.867Z,18.57
2018-07-25T04:31:02.453Z,18.77
2018-07-25T04:33:30.958Z,16.37
2018-07-25T04:35:59.482Z,18.30
2018-07-25T04:38:27.964Z,17.83
2018-07-25T04:40:56.445Z,17.53
2018-07-25T04:43:24.987Z,17.77
2018-07-25T04:45:53.569Z,17.77
2018-07-25T04:48:22.193Z,16.40
2018-07-25T04:50:50.711Z,18.50
2018-07-25T04:53:19.250Z,17.83
2018-07-25T04:55:47.771Z,24.80
2018-07-25T04:58:16.322Z,17.87
2018-07-25T05:00:44.898Z,16.60
2018-07-25T05:03:13.386Z,18.00
2018-07-25T05:05:41.875Z,18.03
2018-07-25T05:08:10.409Z,16.23
2018-07-25T05:10:38.945Z,17.43
2018-07-25T05:13:07.595Z,17.17
2018-07-25T05:15:36.115Z,16.47
2018-07-25T05:18:04.646Z,16.97
2018-07-25T05:20:33.153Z,17.33
2018-07-25T05:23:01.667Z,16.30
2018-07-25T05:25:30.206Z,16.77
2018-07-25T05:27:58.803Z,17.57
2018-07-25T05:30:27.264Z,18.37
2018-07-25T05:32:55.770Z,17.23
2018-07-25T05:35:24.263Z,17.00
2018-07-25T05:37:52.776Z,17.03
2018-07-25T05:40:21.252Z,17.40
2018-07-25T05:42:49.766Z,17.37
2018-07-25T05:45:18.265Z,17.83
2018-07-25T05:47:46.750Z,17.83
2018-07-25T05:50:14.908Z,18.87
2018-07-25T05:52:43.380Z,17.10
2018-07-25T05:55:11.887Z,17.60
2018-07-25T05:57:40.355Z,18.60
2018-07-25T06:00:08.923Z,17.27
2018-07-25T06:02:37.433Z,17.50
2018-07-25T06:05:05.972Z,17.03
2018-07-25T06:07:34.537Z,21.63
2018-07-25T06:10:03.076Z,17.37
2018-07-25T06:12:31.546Z,16.50
2018-07-25T06:15:00.024Z,16.13
2018-07-25T06:17:28.806Z,16.43
2018-07-25T06:19:57.321Z,16.23
2018-07-25T06:22:25.802Z,17.40
2018-07-25T06:24:54.316Z,16.50
2018-07-25T06:27:22.794Z,14.00
2018-07-25T06:29:51.253Z,14.67
2018-07-25T06:32:20.091Z,14.23
2018-07-25T06:34:48.743Z,13.97
2018-07-25T06:37:17.195Z,15.03
2018-07-25T06:39:45.767Z,16.43
2018-07-25T06:42:14.613Z,14.00
2018-07-25T06:44:43.071Z,13.20
2018-07-25T06:47:11.702Z,14.97
2018-07-25T06:49:40.291Z,14.20
2018-07-25T06:52:08.838Z,14.93
2018-07-25T06:54:37.603Z,13.40
2018-07-25T06:57:06.256Z,13.10
2018-07-25T06:59:34.748Z,12.77
2018-07-25T07:02:03.622Z,12.63
2018-07-25T07:04:32.071Z,11.73
2018-07-25T07:07:00.634Z,11.50
2018-07-25T07:09:29.221Z,14.73
2018-07-25T07:11:57.812Z,12.43
2018-07-25T07:14:26.289Z,10.30
2018-07-25T07:16:54.931Z,10.73
2018-07-25T07:19:23.448Z,12.17
2018-07-25T07:21:51.935Z,9.37
2018-07-25T07:24:20.462Z,10.60
2018-07-25T07:26:48.927Z,9.70
2018-07-25T07:29:17.437Z,9.43
2018-07-25T07:31:45.979Z,9.90
2018-07-25T07:34:14.790Z,10.83
2018-07-25T07:36:43.359Z,8.97
2018-07-25T07:39:13.380Z,9.27
2018-07-25T07:41:42.255Z,8.90
2018-07-25T07:44:10.908Z,8.47
2018-07-25T07:46:39.498Z,9.13
2018-07-25T07:49:08.012Z,8.83
2018-07-25T07:51:36.494Z,8.67
2018-07-25T07:54:05.150Z,8.37
2018-07-25T07:56:33.788Z,7.73
2018-07-25T07:59:02.304Z,7.00
2018-07-25T08:01:30.806Z,6.97
2018-07-25T08:03:59.280Z,7.57
2018-07-25T08:06:27.747Z,7.73
2018-07-25T08:08:56.222Z,7.30
2018-07-25T08:11:24.698Z,6.63
2018-07-25T08:13:53.129Z,6.97
2018-07-25T08:16:21.607Z,6.13
2018-07-25T08:18:50.138Z,6.23
2018-07-25T08:21:18.716Z,6.57
2018-07-25T08:23:47.339Z,6.73
2018-07-25T08:26:15.817Z,6.80
2018-07-25T08:28:44.494Z,7.00
2018-07-25T08:31:12.975Z,6.50
2018-07-25T08:33:41.467Z,6.20
2018-07-25T08:36:10.002Z,6.83
2018-07-25T08:38:42.585Z,6.50
2018-07-25T08:41:11.200Z,5.87
2018-07-25T08:43:41.083Z,5.77
2018-07-25T08:46:10.835Z,6.47
2018-07-25T08:48:39.696Z,6.07
2018-07-25T08:51:08.255Z,6.03
2018-07-25T08:53:37.247Z,5.57
2018-07-25T08:56:05.984Z,5.27
2018-07-25T08:58:34.477Z,5.27
2018-07-25T09:01:03.011Z,5.90
2018-07-25T09:03:31.577Z,6.43
2018-07-25T09:06:00.183Z,6.70
2018-07-25T09:08:28.639Z,7.00
2018-07-25T09:10:57.146Z,7.10
2018-07-25T09:13:25.664Z,7.57
2018-07-25T09:15:54.183Z,7.93
2018-07-25T09:18:22.666Z,7.20
2018-07-25T09:20:51.135Z,7.00
2018-07-25T09:23:19.583Z,7.17
2018-07-25T09:25:48.039Z,7.43
2018-07-25T09:28:16.526Z,5.97
2018-07-25T09:30:45.101Z,6.50
2018-07-25T09:33:13.605Z,6.20
2018-07-25T09:35:42.103Z,5.77
2018-07-25T09:38:11.070Z,7.00
2018-07-25T09:40:39.592Z,6.93
2018-07-25T09:43:08.170Z,7.53
2018-07-25T09:45:36.750Z,6.97
2018-07-25T09:48:05.496Z,7.47
2018-07-25T09:50:34.173Z,6.90
2018-07-25T09:53:02.711Z,6.20
2018-07-25T09:55:31.174Z,6.20
2018-07-25T09:58:00.064Z,6.60
2018-07-25T10:01:01.331Z,6.23
2018-07-25T10:03:30.081Z,6.37
2018-07-25T10:05:58.728Z,5.90
2018-07-25T10:08:27.376Z,6.90
2018-07-25T10:10:55.738Z,6.03
2018-07-25T10:13:24.238Z,6.90
2018-07-25T10:15:52.816Z,6.70
2018-07-25T10:18:21.338Z,6.50
2018-07-25T10:20:49.879Z,5.77
2018-07-25T10:23:18.358Z,6.13
2018-07-25T10:25:46.843Z,7.10
2018-07-25T10:28:15.368Z,6.13
2018-07-25T10:30:43.872Z,4.83
2018-07-25T10:33:12.482Z,7.83
2018-07-25T10:35:40.962Z,6.33
2018-07-25T10:38:09.466Z,6.20
2018-07-25T10:40:38.048Z,5.77
2018-07-25T10:43:06.241Z,5.50
2018-07-25T10:45:34.768Z,5.23
2018-07-25T10:48:03.328Z,5.07
2018-07-25T10:50:31.850Z,5.30
2018-07-25T10:53:00.390Z,5.43
2018-07-25T10:55:28.870Z,6.07
2018-07-25T10:57:57.343Z,5.80
2018-07-25T11:00:25.827Z,5.87
2018-07-25T11:02:54.388Z,6.57
2018-07-25T11:05:22.895Z,6.93
2018-07-25T11:07:51.403Z,6.50
2018-07-25T11:10:19.899Z,7.17
2018-07-25T11:12:48.422Z,6.80
2018-07-25T11:15:16.935Z,5.60
2018-07-25T11:17:45.425Z,5.37
2018-07-25T11:20:13.984Z,5.47
2018-07-25T11:22:42.482Z,5.43
2018-07-25T11:25:10.950Z,5.10
2018-07-25T11:27:39.419Z,6.37
2018-07-25T11:30:08.049Z,5.30
2018-07-25T11:32:36.566Z,5.33
2018-07-25T11:35:05.979Z,5.40
2018-07-25T11:37:34.419Z,5.47
2018-07-25T11:40:03.920Z,4.70
2018-07-25T11:42:32.500Z,6.20
2018-07-25T11:45:01.000Z,5.57
2018-07-25T11:47:29.491Z,5.70
2018-07-25T11:49:57.991Z,5.07
2018-07-25T11:52:26.528Z,5.67
2018-07-25T11:54:55.115Z,5.10
2018-07-25T11:57:23.591Z,5.60
2018-07-25T11:59:52.071Z,6.00
2018-07-25T12:02:20.551Z,5.30
2018-07-25T12:04:49.173Z,5.50
2018-07-25T12:07:17.764Z,5.53
2018-07-25T12:09:46.298Z,5.80
2018-07-25T12:12:14.765Z,5.27
2018-07-25T12:14:43.271Z,5.30
2018-07-25T12:17:11.795Z,5.50
2018-07-25T12:19:40.299Z,4.87
2018-07-25T12:22:08.975Z,4.83
2018-07-25T12:24:37.571Z,4.90
2018-07-25T12:27:06.159Z,4.53
2018-07-25T12:29:34.847Z,4.70
2018-07-25T12:32:03.546Z,4.70
2018-07-25T12:34:31.963Z,4.37
2018-07-25T12:37:00.496Z,4.60
2018-07-25T12:39:29.041Z,4.93
2018-07-25T12:41:57.571Z,5.07
2018-07-25T12:44:26.371Z,5.00
2018-07-25T12:46:54.887Z,5.90
2018-07-25T12:49:23.467Z,5.53
2018-07-25T12:51:52.087Z,5.30
2018-07-25T12:54:20.582Z,5.03
2018-07-25T12:56:49.094Z,4.80
2018-07-25T12:59:17.563Z,4.77
2018-07-25T13:01:46.039Z,4.50
2018-07-25T13:04:14.560Z,4.20
2018-07-25T13:06:43.119Z,4.07
2018-07-25T13:09:12.462Z,3.77
2018-07-25T13:11:41.001Z,5.10
2018-07-25T13:14:10.064Z,4.70
2018-07-25T13:16:38.873Z,5.00
2018-07-25T13:19:07.378Z,3.70
2018-07-25T13:21:36.263Z,4.63
2018-07-25T13:24:04.867Z,5.20
2018-07-25T13:26:33.371Z,4.60
2018-07-25T13:29:01.886Z,4.43
2018-07-25T13:31:30.379Z,4.60
2018-07-25T13:33:58.866Z,4.70
2018-07-25T13:36:27.372Z,4.50
2018-07-25T13:38:55.904Z,4.40
2018-07-25T13:41:24.429Z,4.27
2018-07-25T13:43:52.916Z,4.03
2018-07-25T13:46:22.087Z,5.50
2018-07-25T13:48:50.435Z,4.60
2018-07-25T13:51:19.071Z,4.93
2018-07-25T13:53:47.838Z,4.80
2018-07-25T13:56:16.472Z,5.20
2018-07-25T13:58:45.219Z,4.93
2018-07-25T14:01:13.947Z,5.70
2018-07-25T14:03:42.513Z,7.30
2018-07-25T14:06:11.012Z,5.50
2018-07-25T14:08:39.975Z,4.53
2018-07-25T14:11:09.080Z,5.10
2018-07-25T14:13:37.560Z,5.20
2018-07-25T14:16:06.770Z,4.80
2018-07-25T14:18:35.381Z,5.03
2018-07-25T14:21:03.947Z,5.07
2018-07-25T14:23:32.514Z,4.70
2018-07-25T14:26:01.105Z,5.03
2018-07-25T14:28:29.662Z,4.87
2018-07-25T14:30:58.258Z,4.90
2018-07-25T14:33:26.799Z,3.93
2018-07-25T14:35:55.387Z,5.30
2018-07-25T14:38:23.937Z,4.10
2018-07-25T14:40:52.487Z,4.07
2018-07-25T14:43:21.071Z,5.83
2018-07-25T14:45:49.555Z,4.63
2018-07-25T14:48:18.089Z,5.10
2018-07-25T14:50:46.594Z,5.60
2018-07-25T14:53:15.926Z,4.17
2018-07-25T14:55:44.532Z,5.20
2018-07-25T14:58:12.716Z,4.80
2018-07-25T15:00:41.250Z,5.00
2018-07-25T15:03:09.786Z,4.03
2018-07-25T15:05:37.965Z,5.03
2018-07-25T15:08:07.519Z,4.90
2018-07-25T15:10:36.066Z,5.57
2018-07-25T15:13:04.563Z,5.37
2018-07-25T15:15:33.081Z,4.70
2018-07-25T15:18:01.640Z,5.37
2018-07-25T15:20:30.155Z,5.47
2018-07-25T15:22:58.671Z,5.67
2018-07-25T15:25:27.201Z,6.73
2018-07-25T15:27:55.715Z,5.40
2018-07-25T15:30:24.252Z,5.77
2018-07-25T15:32:52.803Z,5.43
2018-07-25T15:35:21.341Z,5.60
2018-07-25T15:37:49.899Z,6.33
2018-07-25T15:40:18.450Z,6.00
2018-07-25T15:42:47.030Z,4.93
2018-07-25T15:45:15.246Z,4.90
2018-07-25T15:47:43.834Z,5.67
2018-07-25T15:50:12.381Z,2.97
2018-07-25T15:52:40.893Z,2.90
2018-07-25T15:55:09.407Z,3.23
2018-07-25T15:57:38.012Z,2.90
2018-07-25T16:00:07.975Z,4.53
2018-07-25T16:02:36.494Z,4.30
2018-07-25T16:05:05.080Z,4.90
2018-07-25T16:07:33.647Z,5.07
2018-07-25T16:10:02.166Z,4.73
2018-07-25T16:12:30.697Z,4.73
2018-07-25T16:14:59.219Z,4.80
2018-07-25T16:17:27.764Z,5.23
2018-07-25T16:19:56.395Z,5.13
2018-07-25T16:22:24.974Z,4.97
2018-07-25T16:24:53.520Z,5.90
2018-07-25T16:27:22.096Z,5.90
2018-07-25T16:29:50.611Z,4.90
2018-07-25T16:32:19.203Z,6.03
2018-07-25T16:34:47.728Z,5.40
2018-07-25T16:37:16.281Z,5.23
2018-07-25T16:39:44.771Z,5.97
2018-07-25T16:42:13.323Z,5.60
2018-07-25T16:44:41.815Z,5.67
2018-07-25T16:47:10.393Z,5.37
2018-07-25T16:49:38.942Z,6.40
2018-07-25T16:52:07.498Z,6.60
2018-07-25T16:54:36.024Z,6.97
2018-07-25T16:57:04.747Z,6.50
2018-07-25T16:59:33.274Z,5.70
2018-07-25T17:02:01.838Z,5.20
2018-07-25T17:04:30.403Z,5.43
2018-07-25T17:06:58.931Z,5.30
2018-07-25T17:09:27.446Z,5.40
2018-07-25T17:11:55.958Z,5.07
2018-07-25T17:14:24.573Z,5.40
2018-07-25T17:16:52.747Z,5.43
2018-07-25T17:19:21.291Z,6.03
2018-07-25T17:21:49.792Z,6.17
2018-07-25T17:24:18.350Z,6.50
2018-07-25T17:26:46.886Z,4.93
2018-07-25T17:29:15.383Z,4.77
2018-07-25T17:31:43.922Z,5.07
2018-07-25T17:34:12.440Z,5.20
2018-07-25T17:36:41.087Z,4.90
2018-07-25T17:39:10.914Z,5.20
2018-07-25T17:41:40.251Z,4.87
2018-07-25T17:44:08.805Z,4.60
2018-07-25T17:46:37.370Z,4.53
2018-07-25T17:49:05.957Z,4.87
2018-07-25T17:51:34.643Z,5.07
2018-07-25T17:54:03.209Z,5.30
2018-07-25T17:56:31.733Z,5.33
2018-07-25T17:59:00.233Z,4.87
2018-07-25T18:01:35.230Z,6.10
2018-07-25T18:04:03.867Z,5.97
2018-07-25T18:06:32.460Z,6.33
2018-07-25T18:09:00.994Z,5.50
2018-07-25T18:11:29.563Z,6.97
2018-07-25T18:14:03.505Z,6.83
2018-07-25T18:16:32.098Z,6.27
2018-07-25T18:19:00.622Z,5.40
2018-07-25T18:21:29.138Z,7.20
2018-07-25T18:23:57.779Z,6.03
2018-07-25T18:26:26.307Z,6.70
2018-07-25T18:28:54.939Z,6.53
2018-07-25T18:31:23.596Z,6.23
2018-07-25T18:33:52.189Z,5.40
2018-07-25T18:36:20.712Z,5.93
2018-07-25T18:38:49.492Z,5.80
2018-07-25T18:41:18.115Z,5.90
2018-07-25T18:43:46.891Z,7.03
2018-07-25T18:46:15.785Z,4.97
2018-07-25T18:48:44.718Z,6.17
2018-07-25T18:51:13.687Z,5.90
2018-07-25T18:53:42.598Z,6.07
2018-07-25T18:56:11.534Z,5.80
2018-07-25T18:58:40.398Z,5.83
2018-07-25T19:01:09.254Z,6.23
2018-07-25T19:03:38.132Z,6.97
2018-07-25T19:06:06.744Z,6.57
2018-07-25T19:08:35.529Z,6.40
2018-07-25T19:11:04.168Z,7.20
2018-07-25T19:13:34.272Z,7.13
2018-07-25T19:16:03.616Z,6.43
2018-07-25T19:18:32.538Z,5.87
2018-07-25T19:21:01.423Z,6.93
2018-07-25T19:23:30.313Z,6.53
2018-07-25T19:25:59.197Z,7.23
2018-07-25T19:28:27.443Z,6.20
2018-07-25T19:30:55.965Z,7.13
2018-07-25T19:33:24.768Z,6.93
2018-07-25T19:35:53.443Z,6.43
2018-07-25T19:38:21.996Z,6.67
2018-07-25T19:40:50.540Z,6.50
2018-07-25T19:43:19.331Z,6.40
2018-07-25T19:45:47.947Z,6.40
2018-07-25T19:48:16.695Z,7.10
2018-07-25T19:50:45.272Z,6.67
2018-07-25T19:53:14.116Z,6.67
2018-07-25T19:55:42.782Z,6.97
2018-07-25T19:58:11.272Z,10.20
2018-07-25T20:00:39.913Z,6.57
2018-07-25T20:03:08.524Z,6.90
2018-07-25T20:05:37.022Z,6.20
2018-07-25T20:08:06.364Z,6.77
2018-07-25T20:10:36.052Z,6.10
2018-07-25T20:13:04.702Z,7.00
2018-07-25T20:15:38.569Z,6.50
2018-07-25T20:18:07.565Z,7.13
2018-07-25T20:20:36.384Z,5.87
2018-07-25T20:23:05.035Z,6.37
2018-07-25T20:25:33.902Z,6.10
2018-07-25T20:28:02.812Z,7.13
2018-07-25T20:30:31.624Z,7.00
2018-07-25T20:33:00.295Z,6.30
2018-07-25T20:35:28.976Z,6.60
2018-07-25T20:37:57.832Z,6.33
2018-07-25T20:40:26.632Z,5.43
2018-07-25T20:42:55.406Z,6.37
2018-07-25T20:45:24.232Z,6.30
2018-07-25T20:47:53.145Z,9.80
2018-07-25T20:50:23.121Z,9.53
2018-07-25T20:52:52.045Z,7.20
2018-07-25T20:55:20.668Z,7.07
2018-07-25T20:57:49.283Z,6.90
2018-07-25T21:03:02.084Z,6.60
2018-07-25T21:05:30.944Z,6.63
2018-07-25T21:07:59.552Z,6.17
2018-07-25T21:10:28.162Z,6.37
2018-07-25T21:12:56.908Z,7.13
2018-07-25T21:15:25.552Z,7.10
2018-07-25T21:17:54.191Z,7.27
2018-07-25T21:20:23.331Z,7.10
2018-07-25T21:22:51.916Z,7.50
2018-07-25T21:25:21.027Z,7.60
2018-07-25T21:27:49.573Z,7.90
2018-07-25T21:30:18.133Z,8.30
2018-07-25T21:32:46.813Z,9.90
2018-07-25T21:35:15.441Z,8.97
2018-07-25T21:37:44.497Z,9.50
2018-07-25T21:40:13.182Z,8.83
2018-07-25T21:42:41.834Z,7.07
2018-07-25T21:45:10.667Z,7.60
2018-07-25T21:47:39.531Z,8.50
2018-07-25T21:50:08.257Z,8.90
2018-07-25T21:52:36.878Z,8.93
2018-07-25T21:55:05.658Z,9.07
2018-07-25T21:57:34.232Z,8.10
2018-07-25T22:00:03.010Z,7.97
2018-07-25T22:02:31.869Z,8.20
2018-07-25T22:05:00.484Z,8.00
2018-07-25T22:07:29.112Z,8.93
2018-07-25T22:09:57.680Z,8.10
2018-07-25T22:12:26.620Z,8.37
2018-07-25T22:14:55.270Z,8.67
2018-07-25T22:17:23.899Z,8.03
2018-07-25T22:19:52.460Z,7.80
2018-07-25T22:22:21.101Z,7.23
2018-07-25T22:24:49.684Z,7.43
2018-07-25T22:27:18.240Z,7.17
2018-07-25T22:29:46.820Z,6.17
2018-07-25T22:32:15.420Z,6.50
2018-07-25T22:34:44.323Z,6.10
2018-07-25T22:37:12.908Z,7.33
2018-07-25T22:39:41.483Z,6.53
2018-07-25T22:42:10.148Z,7.93
2018-07-25T22:44:39.446Z,7.00
2018-07-25T22:47:07.984Z,8.10
2018-07-25T22:49:36.547Z,7.80
2018-07-25T22:52:05.261Z,7.53
2018-07-25T22:54:33.803Z,7.40
2018-07-25T22:57:02.342Z,6.67
2018-07-25T22:59:30.911Z,7.83
2018-07-25T23:01:59.097Z,6.67
2018-07-25T23:04:27.744Z,7.53
2018-07-25T23:06:56.292Z,8.33
2018-07-25T23:09:24.851Z,7.10
2018-07-25T23:11:53.475Z,8.13
2018-07-25T23:14:22.432Z,10.50
2018-07-25T23:16:51.056Z,8.33
2018-07-25T23:19:19.693Z,8.30
2018-07-25T23:21:48.243Z,8.53
2018-07-25T23:24:16.769Z,9.23
2018-07-25T23:26:45.352Z,8.63
2018-07-25T23:29:14.187Z,9.50
2018-07-25T23:31:42.761Z,9.73
2018-07-25T23:34:11.640Z,10.50
2018-07-25T23:36:40.228Z,10.33
2018-07-25T23:39:10.186Z,11.97
2018-07-25T23:41:38.896Z,9.90
2018-07-25T23:44:07.985Z,10.43
2018-07-25T23:46:38.090Z,9.17
2018-07-25T23:49:06.685Z,9.50
2018-07-25T23:51:35.525Z,10.13
2018-07-25T23:54:04.236Z,9.53
2018-07-25T23:56:32.818Z,9.63
2018-07-25T23:59:01.357Z,9.03
